createdAt,value
2018-03-25T00:02:15.927Z,41.13
2018-03-25T00:04:44.225Z,41.90
2018-03-25T00:07:11.770Z,42.28
2018-03-25T00:09:39.419Z,37.55
2018-03-25T00:12:06.960Z,42.70
2018-03-25T00:14:35.245Z,44.03
2018-03-25T00:17:02.779Z,46.80
2018-03-25T00:19:30.356Z,41.70
2018-03-25T00:21:57.855Z,40.95
2018-03-25T00:24:25.364Z,40.33
2018-03-25T00:26:52.978Z,44.03
2018-03-25T00:29:20.554Z,43.00
2018-03-25T00:31:48.062Z,42.60
2018-03-25T00:34:16.394Z,42.10
2018-03-25T00:36:43.898Z,41.80
2018-03-25T00:39:11.696Z,46.65
2018-03-25T00:41:39.212Z,44.42
2018-03-25T00:44:06.726Z,41.90
2018-03-25T00:46:34.241Z,47.08
2018-03-25T00:49:01.760Z,47.60
2018-03-25T00:51:29.283Z,44.33
2018-03-25T00:53:57.613Z,46.67
2018-03-25T00:56:25.112Z,74.43
2018-03-25T00:58:52.638Z,59.78
2018-03-25T01:01:20.159Z,60.65
2018-03-25T01:03:47.778Z,48.65
2018-03-25T01:06:15.308Z,53.83
2018-03-25T01:08:42.838Z,50.75
2018-03-25T01:11:10.394Z,55.67
2018-03-25T01:13:37.916Z,52.17
2018-03-25T01:16:11.210Z,57.85
2018-03-25T01:18:38.770Z,49.83
2018-03-25T01:21:06.318Z,51.42
2018-03-25T01:23:33.853Z,62.17
2018-03-25T01:26:01.384Z,64.00
2018-03-25T01:28:28.902Z,57.47
2018-03-25T01:30:56.435Z,47.60
2018-03-25T01:33:23.950Z,58.08
2018-03-25T01:35:52.272Z,55.47
2018-03-25T01:38:19.878Z,57.05
2018-03-25T01:40:47.431Z,52.22
2018-03-25T01:43:15.739Z,53.08
2018-03-25T01:45:43.262Z,56.37
2018-03-25T01:48:10.838Z,56.22
2018-03-25T01:50:38.350Z,62.83
2018-03-25T01:53:05.882Z,54.08
2018-03-25T01:55:33.398Z,59.72
2018-03-25T01:58:00.910Z,57.47
2018-03-25T02:00:28.432Z,55.47
2018-03-25T02:02:56.744Z,60.28
2018-03-25T02:05:24.268Z,58.40
2018-03-25T02:07:51.800Z,56.65
2018-03-25T02:10:19.400Z,59.35
2018-03-25T02:12:46.928Z,56.95
2018-03-25T02:15:14.453Z,53.42
2018-03-25T02:17:41.972Z,57.38
2018-03-25T02:20:09.499Z,53.22
2018-03-25T02:22:37.025Z,54.10
2018-03-25T02:25:04.554Z,56.08
2018-03-25T02:27:32.075Z,55.50
2018-03-25T02:29:59.584Z,52.35
2018-03-25T02:32:27.129Z,58.33
2018-03-25T02:34:54.661Z,55.28
2018-03-25T02:37:22.194Z,55.72
2018-03-25T02:39:49.816Z,55.30
2018-03-25T02:42:17.334Z,58.13
2018-03-25T02:44:44.872Z,55.20
2018-03-25T02:47:12.532Z,54.97
2018-03-25T02:49:40.043Z,54.97
2018-03-25T02:52:08.386Z,56.60
2018-03-25T02:54:35.897Z,54.35
2018-03-25T02:57:03.438Z,55.63
2018-03-25T02:59:31.722Z,55.33
2018-03-25T03:02:00.064Z,54.03
2018-03-25T03:04:27.612Z,54.20
2018-03-25T03:06:55.143Z,50.65
2018-03-25T03:09:22.690Z,55.33
2018-03-25T03:11:50.255Z,52.25
2018-03-25T03:14:17.823Z,54.30
2018-03-25T03:16:45.325Z,58.20
2018-03-25T03:19:12.847Z,59.85
2018-03-25T03:21:40.391Z,55.15
2018-03-25T03:24:08.027Z,52.42
2018-03-25T03:26:35.563Z,52.00
2018-03-25T03:29:03.088Z,52.50
2018-03-25T03:31:30.676Z,54.75
2018-03-25T03:33:58.167Z,55.25
2018-03-25T03:36:26.463Z,50.47
2018-03-25T03:38:54.024Z,55.17
2018-03-25T03:41:21.580Z,51.13
2018-03-25T03:43:49.847Z,50.22
2018-03-25T03:46:18.134Z,55.40
2018-03-25T03:48:45.717Z,57.03
2018-03-25T03:51:13.337Z,53.03
2018-03-25T03:53:40.857Z,55.67
2018-03-25T03:56:08.397Z,52.55
2018-03-25T03:58:35.925Z,55.05
2018-03-25T04:01:03.436Z,52.95
2018-03-25T04:03:30.964Z,52.25
2018-03-25T04:05:58.479Z,54.72
2018-03-25T04:08:25.991Z,55.50
2018-03-25T04:10:53.518Z,53.78
2018-03-25T04:13:21.814Z,51.75
2018-03-25T04:15:50.103Z,52.65
2018-03-25T04:18:17.627Z,48.03
2018-03-25T04:20:45.163Z,47.08
2018-03-25T04:23:12.671Z,46.30
2018-03-25T04:25:40.961Z,46.83
2018-03-25T04:28:08.502Z,44.30
2018-03-25T04:30:36.016Z,55.30
2018-03-25T04:33:04.304Z,63.95
2018-03-25T04:35:31.815Z,50.45
2018-03-25T04:37:59.342Z,48.15
2018-03-25T04:40:26.854Z,50.30
2018-03-25T04:42:54.392Z,53.08
2018-03-25T04:45:22.039Z,48.92
2018-03-25T04:47:50.329Z,56.50
2018-03-25T04:50:17.848Z,55.42
2018-03-25T04:52:45.389Z,46.72
2018-03-25T04:55:12.956Z,52.40
2018-03-25T04:57:40.475Z,47.88
2018-03-25T05:00:08.008Z,47.90
2018-03-25T05:02:36.291Z,52.35
2018-03-25T05:05:04.606Z,53.85
2018-03-25T05:07:32.124Z,49.40
2018-03-25T05:09:59.633Z,47.00
2018-03-25T05:12:27.173Z,42.72
2018-03-25T05:14:54.708Z,44.90
2018-03-25T05:17:22.254Z,48.50
2018-03-25T05:19:50.528Z,42.50
2018-03-25T05:22:18.810Z,47.55
2018-03-25T05:24:47.125Z,45.38
2018-03-25T05:27:14.685Z,45.95
2018-03-25T05:29:42.328Z,44.15
2018-03-25T05:32:09.844Z,47.78
2018-03-25T05:34:37.379Z,44.33
2018-03-25T05:37:04.941Z,47.08
2018-03-25T05:39:32.454Z,42.30
2018-03-25T05:42:00.747Z,48.40
2018-03-25T05:44:28.273Z,45.45
2018-03-25T05:46:55.796Z,42.78
2018-03-25T05:49:23.324Z,41.45
2018-03-25T05:51:50.852Z,44.90
2018-03-25T05:54:18.367Z,48.55
2018-03-25T05:56:45.895Z,44.10
2018-03-25T05:59:14.174Z,61.13
2018-03-25T06:01:41.657Z,46.37
2018-03-25T06:04:09.194Z,45.40
2018-03-25T06:06:36.731Z,49.08
2018-03-25T06:09:05.011Z,44.90
2018-03-25T06:11:33.291Z,39.05
2018-03-25T06:14:01.587Z,44.50
2018-03-25T06:16:29.486Z,42.72
2018-03-25T06:18:56.990Z,50.67
2018-03-25T06:21:24.538Z,45.92
2018-03-25T06:23:52.062Z,49.42
2018-03-25T06:26:19.588Z,37.88
2018-03-25T06:28:47.129Z,41.17
2018-03-25T06:48:34.205Z,40.78
2018-03-25T06:51:01.732Z,34.97
2018-03-25T06:53:29.236Z,37.80
2018-03-25T06:55:56.818Z,36.67
2018-03-25T06:58:24.343Z,38.58
2018-03-25T07:00:51.887Z,37.95
2018-03-25T07:03:19.414Z,36.63
2018-03-25T07:05:46.995Z,37.15
2018-03-25T07:08:15.295Z,37.42
2018-03-25T07:10:42.823Z,33.03
2018-03-25T07:13:10.351Z,33.60
2018-03-25T07:15:37.889Z,35.07
2018-03-25T07:18:05.408Z,36.25
2018-03-25T07:20:32.928Z,37.60
2018-03-25T07:23:00.494Z,35.00
2018-03-25T07:25:28.008Z,34.85
2018-03-25T07:27:55.521Z,37.25
2018-03-25T07:30:23.059Z,34.20
2018-03-25T07:32:50.615Z,33.97
2018-03-25T07:35:18.125Z,38.85
2018-03-25T07:37:46.476Z,35.58
2018-03-25T07:40:14.046Z,36.60
2018-03-25T07:42:42.314Z,35.78
2018-03-25T07:45:10.624Z,36.17
2018-03-25T07:47:38.138Z,36.15
2018-03-25T07:50:05.706Z,37.15
2018-03-25T07:52:33.211Z,37.22
2018-03-25T07:55:00.740Z,36.30
2018-03-25T07:57:28.251Z,40.28
2018-03-25T07:59:55.783Z,40.20
2018-03-25T08:02:23.315Z,37.70
2018-03-25T08:04:50.836Z,37.65
2018-03-25T08:07:18.396Z,36.35
2018-03-25T08:09:45.926Z,40.08
2018-03-25T08:12:13.503Z,35.35
2018-03-25T08:14:41.076Z,37.13
2018-03-25T08:17:08.627Z,38.97
2018-03-25T08:19:36.162Z,37.47
2018-03-25T08:22:03.677Z,38.90
2018-03-25T08:24:31.212Z,38.67
2018-03-25T08:26:58.745Z,42.60
2018-03-25T08:29:26.263Z,38.83
2018-03-25T08:31:53.789Z,36.45
2018-03-25T08:34:22.854Z,42.67
2018-03-25T08:36:50.418Z,36.95
2018-03-25T08:39:17.945Z,34.67
2018-03-25T08:41:45.648Z,42.85
2018-03-25T08:44:13.186Z,56.17
2018-03-25T08:46:40.716Z,42.78
2018-03-25T08:49:08.290Z,32.38
2018-03-25T08:51:35.816Z,35.45
2018-03-25T08:54:03.349Z,39.58
2018-03-25T08:56:30.894Z,34.13
2018-03-25T08:58:59.193Z,38.47
2018-03-25T09:01:26.720Z,39.47
2018-03-25T09:03:55.089Z,34.08
2018-03-25T09:06:22.576Z,38.30
2018-03-25T09:08:50.092Z,36.17
2018-03-25T09:11:17.715Z,35.53
2018-03-25T09:13:45.237Z,41.75
2018-03-25T09:16:13.605Z,41.08
2018-03-25T09:18:41.316Z,38.47
2018-03-25T09:21:08.834Z,39.00
2018-03-25T09:23:37.190Z,40.75
2018-03-25T09:26:04.738Z,39.17
2018-03-25T09:28:32.253Z,39.08
2018-03-25T09:30:59.799Z,42.40
2018-03-25T09:33:27.357Z,38.00
2018-03-25T09:35:55.649Z,37.08
2018-03-25T09:38:23.228Z,39.60
2018-03-25T09:40:50.768Z,37.92
2018-03-25T09:43:18.279Z,34.95
2018-03-25T09:45:45.853Z,36.92
2018-03-25T09:48:13.331Z,37.03
2018-03-25T09:50:41.609Z,38.53
2018-03-25T09:53:09.915Z,39.90
2018-03-25T09:55:37.454Z,83.12
2018-03-25T09:58:05.719Z,60.95
2018-03-25T10:00:36.825Z,34.50
2018-03-25T10:03:09.959Z,36.90
2018-03-25T10:05:38.265Z,34.80
2018-03-25T10:08:05.792Z,35.13
2018-03-25T10:10:33.314Z,36.97
2018-03-25T10:13:00.880Z,33.30
2018-03-25T10:15:28.434Z,38.83
2018-03-25T10:17:55.953Z,38.30
2018-03-25T10:20:23.595Z,35.88
2018-03-25T10:22:51.891Z,37.22
2018-03-25T10:25:20.296Z,37.50
2018-03-25T10:27:47.888Z,42.92
2018-03-25T10:30:15.424Z,41.15
2018-03-25T10:32:42.928Z,87.72
2018-03-25T10:35:11.206Z,34.88
2018-03-25T10:37:39.523Z,33.97
2018-03-25T10:40:07.158Z,34.45
2018-03-25T10:42:34.706Z,36.20
2018-03-25T10:45:02.256Z,34.30
2018-03-25T10:47:30.556Z,36.22
2018-03-25T10:49:58.834Z,38.67
2018-03-25T10:52:26.393Z,38.17
2018-03-25T10:54:54.687Z,36.22
2018-03-25T10:57:22.289Z,35.35
2018-03-25T10:59:49.836Z,38.58
2018-03-25T11:02:17.387Z,39.90
2018-03-25T11:04:44.963Z,37.42
2018-03-25T11:07:12.476Z,36.17
2018-03-25T11:09:40.009Z,39.22
2018-03-25T11:12:07.547Z,37.38
2018-03-25T11:14:35.110Z,37.05
2018-03-25T11:17:02.647Z,38.90
2018-03-25T11:19:30.234Z,39.38
2018-03-25T11:21:57.775Z,38.72
2018-03-25T11:24:25.338Z,39.03
2018-03-25T11:26:52.855Z,36.67
2018-03-25T11:29:20.367Z,35.05
2018-03-25T11:31:47.923Z,55.70
2018-03-25T11:34:15.455Z,36.42
2018-03-25T11:36:43.097Z,36.83
2018-03-25T11:39:10.655Z,33.85
2018-03-25T11:41:38.196Z,39.05
2018-03-25T11:44:05.728Z,49.72
2018-03-25T11:46:33.249Z,38.13
2018-03-25T11:49:00.854Z,37.47
2018-03-25T11:51:28.411Z,35.83
2018-03-25T11:53:55.963Z,35.80
2018-03-25T11:56:23.518Z,37.75
2018-03-25T11:58:51.056Z,34.38
2018-03-25T12:01:18.609Z,33.17
2018-03-25T12:03:46.171Z,35.65
2018-03-25T12:06:13.727Z,35.95
2018-03-25T12:08:41.246Z,37.70
2018-03-25T12:11:08.840Z,37.20
2018-03-25T12:13:36.379Z,33.80
2018-03-25T12:16:03.905Z,34.22
2018-03-25T12:18:31.467Z,36.45
2018-03-25T12:20:58.989Z,34.28
2018-03-25T12:23:26.529Z,36.47
2018-03-25T12:25:54.860Z,35.75
2018-03-25T12:28:22.404Z,35.10
2018-03-25T12:30:49.958Z,35.83
2018-03-25T12:33:17.522Z,36.65
2018-03-25T12:35:45.052Z,35.22
2018-03-25T12:38:13.341Z,36.70
2018-03-25T12:40:40.891Z,39.80
2018-03-25T12:43:08.438Z,36.50
2018-03-25T12:45:36.755Z,34.60
2018-03-25T12:48:04.351Z,36.65
2018-03-25T12:50:31.875Z,36.00
2018-03-25T12:52:59.403Z,35.80
2018-03-25T12:55:26.958Z,36.28
2018-03-25T12:57:55.249Z,35.97
2018-03-25T13:00:22.803Z,37.33
2018-03-25T13:02:50.340Z,35.55
2018-03-25T13:05:17.926Z,38.10
2018-03-25T13:07:45.475Z,36.80
2018-03-25T13:10:13.769Z,37.47
2018-03-25T13:12:41.323Z,36.13
2018-03-25T13:15:08.888Z,36.35
2018-03-25T13:17:36.665Z,37.00
2018-03-25T13:20:09.358Z,36.28
2018-03-25T13:22:37.235Z,36.13
2018-03-25T13:25:05.523Z,37.78
2018-03-25T13:27:33.134Z,36.50
2018-03-25T13:30:00.687Z,36.22
2018-03-25T13:32:28.306Z,37.72
2018-03-25T13:34:55.908Z,37.05
2018-03-25T13:37:23.525Z,36.25
2018-03-25T13:39:51.132Z,38.85
2018-03-25T13:42:18.665Z,34.78
2018-03-25T13:44:46.411Z,39.13
2018-03-25T13:47:14.085Z,37.58
2018-03-25T13:49:41.632Z,38.60
2018-03-25T13:52:09.151Z,36.72
2018-03-25T13:54:36.691Z,37.03
2018-03-25T13:57:04.418Z,37.80
2018-03-25T13:59:31.969Z,40.00
2018-03-25T14:01:59.596Z,40.90
2018-03-25T14:04:27.206Z,40.60
2018-03-25T14:06:54.831Z,41.67
2018-03-25T14:09:22.591Z,39.28
2018-03-25T14:11:50.124Z,38.70
2018-03-25T14:14:17.658Z,41.05
2018-03-25T14:16:45.200Z,39.53
2018-03-25T14:19:12.822Z,37.33
2018-03-25T14:21:41.054Z,37.67
2018-03-25T14:24:08.649Z,37.55
2018-03-25T14:26:36.630Z,37.72
2018-03-25T14:29:04.155Z,37.50
2018-03-25T14:31:31.733Z,39.33
2018-03-25T14:34:00.043Z,39.00
2018-03-25T14:36:27.574Z,44.22
2018-03-25T14:38:55.886Z,36.50
2018-03-25T14:41:23.466Z,37.45
2018-03-25T14:43:51.078Z,43.53
2018-03-25T14:46:19.386Z,36.03
2018-03-25T14:48:47.025Z,37.13
2018-03-25T14:51:15.364Z,35.58
2018-03-25T14:53:43.067Z,34.83
2018-03-25T14:56:10.668Z,33.75
2018-03-25T14:58:38.219Z,35.63
2018-03-25T15:01:05.787Z,34.65
2018-03-25T15:03:33.301Z,34.67
2018-03-25T15:06:00.868Z,36.10
2018-03-25T15:08:28.469Z,33.90
2018-03-25T15:10:56.320Z,71.50
2018-03-25T15:13:23.883Z,49.40
2018-03-25T15:15:51.395Z,32.45
2018-03-25T15:18:18.956Z,34.92
2018-03-25T15:20:46.520Z,35.90
2018-03-25T15:23:14.144Z,40.30
2018-03-25T15:25:41.703Z,38.15
2018-03-25T15:28:09.263Z,37.40
2018-03-25T15:30:36.771Z,36.75
2018-03-25T15:33:04.322Z,35.50
2018-03-25T15:35:32.717Z,36.47
2018-03-25T15:38:00.315Z,39.00
2018-03-25T15:40:27.860Z,35.60
2018-03-25T15:42:55.448Z,39.90
2018-03-25T15:45:22.992Z,35.85
2018-03-25T15:47:50.551Z,35.08
2018-03-25T15:50:18.829Z,36.10
2018-03-25T15:52:46.387Z,42.40
2018-03-25T15:55:14.006Z,40.35
2018-03-25T15:57:41.603Z,38.08
2018-03-25T16:00:09.582Z,38.97
2018-03-25T16:02:37.100Z,35.22
2018-03-25T16:05:05.397Z,34.03
2018-03-25T16:07:33.071Z,33.63
2018-03-25T16:10:00.614Z,36.05
2018-03-25T16:12:28.249Z,34.05
2018-03-25T16:14:56.565Z,36.97
2018-03-25T16:17:24.270Z,34.30
2018-03-25T16:19:51.822Z,33.97
2018-03-25T16:22:19.420Z,34.75
2018-03-25T16:24:48.736Z,36.10
2018-03-25T16:27:16.272Z,38.63
2018-03-25T16:29:43.830Z,39.70
2018-03-25T16:32:12.152Z,38.15
2018-03-25T16:34:39.729Z,36.72
2018-03-25T16:37:07.400Z,36.53
2018-03-25T16:39:34.952Z,39.92
2018-03-25T16:42:02.543Z,42.30
2018-03-25T16:44:30.108Z,40.78
2018-03-25T16:46:57.656Z,37.17
2018-03-25T16:49:25.494Z,37.55
2018-03-25T16:51:53.062Z,41.55
2018-03-25T16:54:20.779Z,39.55
2018-03-25T16:56:48.303Z,36.50
2018-03-25T16:59:15.934Z,43.28
2018-03-25T17:01:43.549Z,42.78
2018-03-25T17:04:11.080Z,40.53
2018-03-25T17:06:38.768Z,39.75
2018-03-25T17:09:07.089Z,37.88
2018-03-25T17:11:35.603Z,43.80
2018-03-25T17:14:03.288Z,48.22
2018-03-25T17:16:30.945Z,45.15
2018-03-25T17:18:58.474Z,40.63
2018-03-25T17:21:26.119Z,44.17
2018-03-25T17:23:53.672Z,42.38
2018-03-25T17:26:21.254Z,44.30
2018-03-25T17:28:48.805Z,49.25
2018-03-25T17:31:16.401Z,45.30
2018-03-25T17:33:43.921Z,46.17
2018-03-25T17:36:11.449Z,43.20
2018-03-25T17:38:39.857Z,40.45
2018-03-25T17:41:07.392Z,45.85
2018-03-25T17:43:34.918Z,44.63
2018-03-25T17:46:02.450Z,41.22
2018-03-25T17:48:29.995Z,41.53
2018-03-25T17:50:57.532Z,46.13
2018-03-25T17:53:25.844Z,55.55
2018-03-25T17:55:53.501Z,46.03
2018-03-25T17:58:21.773Z,44.40
2018-03-25T18:00:49.314Z,41.28
2018-03-25T18:03:16.853Z,40.63
2018-03-25T18:05:45.168Z,49.88
2018-03-25T18:08:12.735Z,104.85
2018-03-25T18:10:40.277Z,57.00
2018-03-25T18:13:07.864Z,39.45
2018-03-25T18:15:35.425Z,36.80
2018-03-25T18:18:03.012Z,35.03
2018-03-25T18:20:30.554Z,43.55
2018-03-25T18:22:58.102Z,40.03
2018-03-25T18:25:25.647Z,35.80
2018-03-25T18:27:53.168Z,36.38
2018-03-25T18:30:20.725Z,39.03
2018-03-25T18:32:48.240Z,38.80
2018-03-25T18:35:15.801Z,41.80
2018-03-25T18:37:43.344Z,43.60
2018-03-25T18:40:10.929Z,38.75
2018-03-25T18:42:38.480Z,44.40
2018-03-25T18:45:06.030Z,49.80
2018-03-25T18:47:33.674Z,50.40
2018-03-25T18:50:01.330Z,44.58
2018-03-25T18:52:28.893Z,44.92
2018-03-25T18:54:57.197Z,46.20
2018-03-25T18:57:24.777Z,44.90
2018-03-25T18:59:52.344Z,43.90
2018-03-25T19:02:19.902Z,43.55
2018-03-25T19:04:47.468Z,46.97
2018-03-25T19:07:15.081Z,41.47
2018-03-25T19:09:42.700Z,48.15
2018-03-25T19:12:10.378Z,42.03
2018-03-25T19:14:38.777Z,44.00
2018-03-25T19:17:06.481Z,45.50
2018-03-25T19:19:34.198Z,45.33
2018-03-25T19:22:01.848Z,48.33
2018-03-25T19:24:30.562Z,52.50
2018-03-25T19:26:58.313Z,46.47
2018-03-25T19:29:25.954Z,44.97
2018-03-25T19:31:53.713Z,45.85
2018-03-25T19:34:22.196Z,44.35
2018-03-25T19:36:49.815Z,45.75
2018-03-25T19:39:17.519Z,43.50
2018-03-25T19:41:45.179Z,45.72
2018-03-25T19:44:13.521Z,50.00
2018-03-25T19:46:41.188Z,47.38
2018-03-25T19:49:08.799Z,45.97
2018-03-25T19:51:36.404Z,46.08
2018-03-25T19:54:03.941Z,49.88
2018-03-25T19:56:31.559Z,43.45
2018-03-25T19:58:59.135Z,47.60
2018-03-25T20:01:27.534Z,47.90
2018-03-25T20:03:55.103Z,46.55
2018-03-25T20:06:22.685Z,48.17
2018-03-25T20:08:50.347Z,48.08
2018-03-25T20:11:17.941Z,42.70
2018-03-25T20:13:45.475Z,44.38
2018-03-25T20:16:13.040Z,48.67
2018-03-25T20:18:40.582Z,46.58
2018-03-25T20:21:08.147Z,43.80
2018-03-25T20:23:35.710Z,44.03
2018-03-25T20:26:03.267Z,42.70
2018-03-25T20:28:30.846Z,42.45
2018-03-25T20:30:58.405Z,43.83
2018-03-25T20:33:25.928Z,39.35
2018-03-25T20:35:53.474Z,39.00
2018-03-25T20:38:21.779Z,33.67
2018-03-25T20:40:49.319Z,41.70
2018-03-25T20:43:17.660Z,35.65
2018-03-25T20:45:45.200Z,36.13
2018-03-25T20:48:12.722Z,39.67
2018-03-25T20:50:41.065Z,31.70
2018-03-25T20:53:08.594Z,32.97
2018-03-25T20:55:36.284Z,34.05
2018-03-25T20:58:03.902Z,29.10
2018-03-25T21:00:31.427Z,30.42
2018-03-25T21:02:59.770Z,29.12
2018-03-25T21:05:27.324Z,30.70
2018-03-25T21:07:54.952Z,27.80
2018-03-25T21:10:22.589Z,31.33
2018-03-25T21:12:50.174Z,27.90
2018-03-25T21:15:17.737Z,33.45
2018-03-25T21:17:45.274Z,35.22
2018-03-25T21:20:13.705Z,33.20
2018-03-25T21:22:42.376Z,37.17
2018-03-25T21:25:09.907Z,27.87
2018-03-25T21:27:38.219Z,29.98
2018-03-25T21:30:05.743Z,36.25
2018-03-25T21:32:33.734Z,30.27
2018-03-25T21:35:01.379Z,31.70
2018-03-25T21:37:29.714Z,29.60
2018-03-25T21:39:58.042Z,30.62
2018-03-25T21:42:25.726Z,32.85
2018-03-25T21:44:53.274Z,29.83
2018-03-25T21:47:20.783Z,29.87
2018-03-25T21:49:48.339Z,29.10
2018-03-25T21:52:15.896Z,28.48
2018-03-25T21:54:43.427Z,28.45
2018-03-25T21:57:11.158Z,27.05
2018-03-25T21:59:39.465Z,31.58
2018-03-25T22:02:07.023Z,32.15
2018-03-25T22:04:34.602Z,32.53
2018-03-25T22:07:02.176Z,29.92
2018-03-25T22:09:29.711Z,27.60
2018-03-25T22:11:57.236Z,35.33
2018-03-25T22:14:25.008Z,28.30
2018-03-25T22:16:53.280Z,30.55
2018-03-25T22:19:21.560Z,28.27
2018-03-25T22:21:49.856Z,33.88
2018-03-25T22:24:17.376Z,31.75
2018-03-25T22:26:44.974Z,32.60
2018-03-25T22:29:12.499Z,29.08
2018-03-25T22:31:40.786Z,33.33
2018-03-25T22:34:08.302Z,29.65
2018-03-25T22:36:36.625Z,31.48
2018-03-25T22:39:04.135Z,32.15
2018-03-25T22:41:31.654Z,32.13
2018-03-25T22:43:59.163Z,30.27
2018-03-25T22:46:26.720Z,32.97
2018-03-25T22:48:54.233Z,28.45
2018-03-25T22:51:21.756Z,28.20
2018-03-25T22:53:49.283Z,29.17
2018-03-25T22:56:16.818Z,33.28
2018-03-25T22:58:44.353Z,30.70
2018-03-25T23:01:12.656Z,32.58
2018-03-25T23:03:40.174Z,30.00
2018-03-25T23:06:07.696Z,33.28
2018-03-25T23:08:35.268Z,29.83
2018-03-25T23:11:02.781Z,29.17
2018-03-25T23:13:30.467Z,29.40
2018-03-25T23:15:58.014Z,31.30
2018-03-25T23:18:25.547Z,30.75
2018-03-25T23:20:53.858Z,29.77
2018-03-25T23:23:21.385Z,30.25
2018-03-25T23:25:49.662Z,31.83
2018-03-25T23:28:17.953Z,34.22
2018-03-25T23:30:46.264Z,30.62
2018-03-25T23:33:13.780Z,31.87
2018-03-25T23:35:41.321Z,30.95
2018-03-25T23:38:08.850Z,32.85
2018-03-25T23:40:36.361Z,30.58
2018-03-25T23:43:03.909Z,29.80
2018-03-25T23:45:31.456Z,32.28
2018-03-25T23:47:58.988Z,30.52
2018-03-25T23:50:26.563Z,34.58
2018-03-25T23:52:54.092Z,34.35
2018-03-25T23:55:21.612Z,31.30
2018-03-25T23:57:49.930Z,31.15
